createdAt,value
2019-05-22T00:02:29.622Z,19.97
2019-05-22T00:06:42.172Z,20.97
2019-05-22T00:10:53.947Z,17.30
2019-05-22T00:15:03.689Z,19.00
2019-05-22T00:19:13.887Z,18.00
2019-05-22T00:23:23.367Z,17.20
2019-05-22T00:27:32.455Z,16.70
2019-05-22T00:31:41.427Z,16.03
2019-05-22T00:35:51.087Z,16.70
2019-05-22T00:40:00.507Z,17.70
2019-05-22T00:44:12.955Z,15.63
2019-05-22T00:48:25.389Z,16.17
2019-05-22T00:52:46.301Z,16.70
2019-05-22T00:57:13.703Z,16.77
2019-05-22T01:01:39.898Z,15.97
2019-05-22T01:05:49.313Z,17.87
2019-05-22T01:09:59.238Z,16.70
2019-05-22T01:14:09.250Z,17.40
2019-05-22T01:18:18.747Z,21.00
2019-05-22T01:22:28.606Z,20.67
2019-05-22T01:26:39.123Z,20.47
2019-05-22T01:31:05.763Z,22.83
2019-05-22T01:35:16.365Z,21.23
2019-05-22T01:39:44.734Z,22.60
2019-05-22T01:43:55.585Z,20.97
2019-05-22T01:48:10.986Z,20.20
2019-05-22T01:52:21.305Z,19.77
2019-05-22T01:56:31.563Z,19.90
2019-05-22T02:00:41.966Z,19.90
2019-05-22T02:04:51.339Z,19.30
2019-05-22T02:09:19.470Z,18.80
2019-05-22T02:13:38.156Z,19.30
2019-05-22T02:17:48.533Z,19.50
2019-05-22T02:21:59.233Z,19.90
2019-05-22T02:26:10.362Z,21.47
2019-05-22T02:30:22.619Z,19.93
2019-05-22T02:34:31.603Z,18.53
2019-05-22T02:38:41.774Z,16.80
2019-05-22T02:42:52.148Z,15.50
2019-05-22T02:47:18.172Z,15.43
2019-05-22T02:51:14.439Z,14.00
2019-05-22T02:55:23.534Z,14.57
2019-05-22T02:59:32.590Z,15.30
2019-05-22T03:03:43.979Z,14.53
2019-05-22T03:07:53.620Z,13.80
2019-05-22T03:12:10.955Z,13.27
2019-05-22T03:16:20.170Z,14.00
2019-05-22T03:20:32.069Z,14.40
2019-05-22T03:24:41.150Z,13.70
2019-05-22T03:28:50.110Z,13.73
2019-05-22T03:33:01.054Z,14.33
2019-05-22T03:37:10.440Z,14.63
2019-05-22T03:41:20.793Z,14.07
2019-05-22T03:45:31.132Z,12.00
2019-05-22T03:49:41.486Z,13.03
2019-05-22T03:53:51.257Z,12.13
2019-05-22T03:58:00.322Z,12.23
2019-05-22T04:02:10.393Z,12.47
2019-05-22T04:06:22.779Z,13.00
2019-05-22T04:10:41.003Z,14.03
2019-05-22T04:14:48.439Z,13.20
2019-05-22T04:18:58.090Z,13.97
2019-05-22T04:23:07.136Z,13.13
2019-05-22T04:27:17.619Z,13.60
2019-05-22T04:31:49.051Z,13.97
2019-05-22T04:36:00.314Z,12.93
2019-05-22T04:40:47.405Z,13.70
2019-05-22T04:45:12.156Z,14.30
2019-05-22T04:49:21.103Z,13.67
2019-05-22T04:53:30.179Z,12.20
2019-05-22T04:57:39.178Z,13.13
2019-05-22T05:01:48.132Z,13.03
2019-05-22T05:05:58.215Z,14.63
2019-05-22T05:10:07.889Z,16.03
2019-05-22T05:14:16.847Z,14.37
2019-05-22T05:18:26.532Z,14.70
2019-05-22T05:22:43.683Z,14.57
2019-05-22T05:26:53.738Z,15.37
2019-05-22T05:31:02.929Z,13.60
2019-05-22T05:35:12.700Z,14.80
2019-05-22T05:40:08.131Z,14.60
2019-05-22T05:44:17.071Z,15.27
2019-05-22T05:48:27.993Z,14.50
2019-05-22T05:52:37.966Z,14.10
2019-05-22T05:56:51.008Z,15.47
2019-05-22T06:01:12.920Z,15.43
2019-05-22T06:05:23.356Z,15.63
2019-05-22T06:09:32.435Z,14.00
2019-05-22T06:13:41.361Z,15.63
2019-05-22T06:18:38.365Z,14.40
2019-05-22T06:23:32.531Z,16.47
2019-05-22T06:27:55.181Z,14.57
2019-05-22T06:33:01.374Z,14.10
2019-05-22T06:37:16.806Z,14.50
2019-05-22T06:41:31.495Z,13.23
2019-05-22T06:45:40.370Z,15.83
2019-05-22T06:49:52.810Z,14.70
2019-05-22T06:54:02.032Z,12.90
2019-05-22T06:58:11.305Z,14.67
2019-05-22T07:02:21.168Z,15.27
2019-05-22T07:06:30.158Z,13.90
2019-05-22T07:10:39.738Z,12.90
2019-05-22T07:15:20.617Z,12.43
2019-05-22T07:19:30.099Z,12.87
2019-05-22T07:23:39.259Z,12.17
2019-05-22T07:27:48.823Z,12.30
2019-05-22T07:32:02.351Z,11.90
2019-05-22T07:36:16.655Z,11.57
2019-05-22T07:40:23.770Z,11.73
2019-05-22T07:44:33.188Z,13.00
2019-05-22T07:48:42.528Z,14.27
2019-05-22T07:52:52.330Z,12.60
2019-05-22T07:57:01.611Z,13.50
2019-05-22T08:01:10.613Z,13.90
2019-05-22T08:05:22.851Z,14.63
2019-05-22T08:09:33.013Z,15.23
2019-05-22T08:13:43.396Z,13.97
2019-05-22T08:17:52.974Z,14.43
2019-05-22T08:22:07.304Z,13.90
2019-05-22T08:26:14.667Z,12.50
2019-05-22T08:30:23.669Z,12.03
2019-05-22T08:34:33.515Z,13.20
2019-05-22T08:38:44.862Z,14.40
2019-05-22T08:42:54.103Z,13.50
2019-05-22T08:47:03.583Z,15.10
2019-05-22T08:51:13.505Z,12.00
2019-05-22T08:55:22.558Z,13.00
2019-05-22T08:59:31.989Z,12.87
2019-05-22T09:03:41.352Z,12.80
2019-05-22T09:07:50.258Z,12.87
2019-05-22T09:11:59.160Z,13.20
2019-05-22T09:16:08.928Z,13.20
2019-05-22T09:20:20.508Z,14.67
2019-05-22T09:24:30.648Z,13.90
2019-05-22T09:28:39.629Z,15.00
2019-05-22T09:32:49.190Z,13.50
2019-05-22T09:36:58.138Z,13.80
2019-05-22T09:41:07.635Z,13.33
2019-05-22T09:45:17.136Z,13.77
2019-05-22T09:49:26.518Z,12.67
2019-05-22T09:53:36.195Z,12.53
2019-05-22T09:57:45.271Z,13.63
2019-05-22T10:01:54.586Z,13.70
2019-05-22T10:06:04.683Z,14.47
2019-05-22T10:10:15.120Z,14.10
2019-05-22T10:14:24.483Z,13.50
2019-05-22T10:18:34.592Z,11.73
2019-05-22T10:22:43.571Z,12.87
2019-05-22T10:26:52.946Z,13.00
2019-05-22T10:31:02.879Z,12.53
2019-05-22T10:35:14.188Z,12.07
2019-05-22T10:39:24.825Z,12.70
2019-05-22T10:43:34.308Z,13.80
2019-05-22T10:47:43.974Z,13.47
2019-05-22T10:51:53.387Z,12.10
2019-05-22T10:56:02.876Z,14.93
2019-05-22T11:00:12.930Z,11.97
2019-05-22T11:04:23.423Z,11.03
2019-05-22T11:08:34.476Z,12.03
2019-05-22T11:12:43.475Z,9.07
2019-05-22T11:16:52.758Z,10.00
2019-05-22T11:21:02.669Z,10.77
2019-05-22T11:25:14.714Z,11.50
2019-05-22T11:29:23.672Z,12.43
2019-05-22T11:33:34.336Z,11.30
2019-05-22T11:37:44.115Z,9.57
2019-05-22T11:41:53.093Z,8.37
2019-05-22T11:46:02.171Z,8.30
2019-05-22T11:50:13.011Z,8.37
2019-05-22T11:54:22.473Z,9.07
2019-05-22T11:58:31.476Z,8.60
2019-05-22T12:02:40.837Z,9.33
2019-05-22T12:06:53.558Z,8.37
2019-05-22T12:11:01.815Z,8.57
2019-05-22T12:15:11.625Z,9.13
2019-05-22T12:19:20.652Z,8.80
2019-05-22T12:23:30.166Z,9.30
2019-05-22T12:27:39.144Z,8.10
2019-05-22T12:31:49.181Z,7.67
2019-05-22T12:35:58.533Z,7.67
2019-05-22T12:40:09.754Z,8.63
2019-05-22T12:44:19.631Z,8.10
2019-05-22T12:48:29.076Z,9.10
2019-05-22T12:52:38.710Z,9.27
2019-05-22T12:56:48.290Z,9.97
2019-05-22T13:00:58.331Z,8.30
2019-05-22T13:05:08.331Z,8.33
2019-05-22T13:09:17.577Z,8.27
2019-05-22T13:13:26.830Z,7.63
2019-05-22T13:17:36.775Z,7.73
2019-05-22T13:21:48.023Z,7.87
2019-05-22T13:25:58.053Z,8.13
2019-05-22T13:30:08.867Z,7.90
2019-05-22T13:34:18.720Z,7.10
2019-05-22T13:38:28.162Z,7.17
2019-05-22T13:42:37.306Z,6.87
2019-05-22T13:46:46.567Z,6.53
2019-05-22T13:50:57.896Z,7.77
2019-05-22T13:55:09.143Z,6.80
2019-05-22T13:59:18.777Z,7.10
2019-05-22T14:03:28.290Z,7.07
2019-05-22T14:07:37.383Z,6.40
2019-05-22T14:11:46.638Z,7.70
2019-05-22T14:15:57.333Z,8.67
2019-05-22T14:20:08.008Z,9.07
2019-05-22T14:24:16.967Z,8.50
2019-05-22T14:28:27.322Z,11.17
2019-05-22T14:32:37.759Z,8.97
2019-05-22T14:36:47.500Z,9.40
2019-05-22T14:40:57.174Z,10.37
2019-05-22T14:45:06.759Z,9.73
2019-05-22T14:49:16.043Z,9.30
2019-05-22T14:53:26.234Z,9.23
2019-05-22T14:57:35.542Z,8.90
2019-05-22T15:01:44.436Z,7.77
2019-05-22T15:05:54.199Z,8.80
2019-05-22T15:10:03.190Z,7.73
2019-05-22T15:14:12.075Z,7.90
2019-05-22T15:18:21.032Z,7.50
2019-05-22T15:22:29.979Z,8.97
2019-05-22T15:26:39.153Z,9.30
2019-05-22T15:30:48.342Z,10.40
2019-05-22T15:34:57.334Z,14.20
2019-05-22T15:39:08.659Z,11.73
2019-05-22T15:43:17.839Z,10.90
2019-05-22T15:47:27.402Z,11.23
2019-05-22T15:51:37.202Z,12.70
2019-05-22T15:55:48.401Z,9.50
2019-05-22T15:59:58.079Z,10.53
2019-05-22T16:04:10.850Z,10.40
2019-05-22T16:08:19.805Z,11.53
2019-05-22T16:12:29.472Z,9.80
2019-05-22T16:16:40.105Z,8.97
2019-05-22T16:20:49.686Z,8.20
2019-05-22T16:25:00.590Z,8.50
2019-05-22T16:29:09.545Z,7.80
2019-05-22T16:33:19.131Z,9.50
2019-05-22T16:37:28.910Z,8.07
2019-05-22T16:41:38.832Z,8.53
2019-05-22T16:45:49.007Z,8.30
2019-05-22T16:50:00.131Z,8.10
2019-05-22T16:54:09.448Z,8.40
2019-05-22T16:58:19.885Z,7.83
2019-05-22T17:02:30.011Z,7.97
2019-05-22T17:06:40.475Z,9.43
2019-05-22T17:10:51.277Z,8.17
2019-05-22T17:15:01.391Z,8.70
2019-05-22T17:19:25.857Z,7.73
2019-05-22T17:23:21.977Z,8.80
2019-05-22T17:27:31.836Z,8.60
2019-05-22T17:31:41.129Z,10.37
2019-05-22T17:35:51.442Z,8.20
2019-05-22T17:40:00.706Z,9.73
2019-05-22T17:44:10.230Z,8.23
2019-05-22T17:48:20.183Z,9.17
2019-05-22T17:52:29.231Z,8.00
2019-05-22T17:56:38.522Z,12.73
2019-05-22T18:00:48.960Z,14.70
2019-05-22T18:04:58.072Z,13.30
2019-05-22T18:09:08.827Z,10.37
2019-05-22T18:13:19.158Z,11.50
2019-05-22T18:17:28.424Z,10.33
2019-05-22T18:21:38.392Z,9.97
2019-05-22T18:25:47.363Z,13.30
2019-05-22T18:29:56.320Z,10.17
2019-05-22T18:34:05.555Z,8.30
2019-05-22T18:38:14.453Z,8.83
2019-05-22T18:42:24.018Z,7.77
2019-05-22T18:46:32.899Z,6.80
2019-05-22T18:50:42.238Z,7.23
2019-05-22T18:54:51.117Z,7.60
2019-05-22T18:59:00.259Z,6.70
2019-05-22T19:03:09.138Z,6.60
2019-05-22T19:07:18.282Z,7.10
2019-05-22T19:11:27.306Z,7.07
2019-05-22T19:15:36.540Z,7.23
2019-05-22T19:19:45.423Z,7.70
2019-05-22T19:23:54.378Z,8.30
2019-05-22T19:28:04.043Z,8.90
2019-05-22T19:32:12.999Z,8.80
2019-05-22T19:36:21.923Z,8.33
2019-05-22T19:40:30.810Z,8.67
2019-05-22T19:44:39.770Z,9.73
2019-05-22T19:48:49.171Z,8.47
2019-05-22T19:53:15.885Z,9.60
2019-05-22T19:57:09.912Z,8.30
2019-05-22T20:01:18.798Z,9.63
2019-05-22T20:05:27.861Z,9.47
2019-05-22T20:09:38.543Z,9.00
2019-05-22T20:13:48.050Z,9.20
2019-05-22T20:17:57.910Z,7.90
2019-05-22T20:22:08.302Z,8.60
2019-05-22T20:26:18.232Z,9.10
2019-05-22T20:30:27.754Z,8.23
2019-05-22T20:34:37.154Z,8.80
2019-05-22T20:38:46.182Z,8.37
2019-05-22T20:42:55.719Z,10.40
2019-05-22T20:47:06.452Z,26.10
2019-05-22T20:51:17.662Z,36.37
2019-05-22T20:55:26.746Z,38.40
2019-05-22T20:59:35.997Z,31.10
2019-05-22T21:03:45.047Z,44.70
2019-05-22T21:07:56.943Z,35.67
2019-05-22T21:12:08.699Z,46.07
2019-05-22T21:16:18.493Z,54.07
2019-05-22T21:20:30.302Z,20.80
2019-05-22T21:24:39.870Z,16.63
2019-05-22T21:28:49.512Z,12.90
2019-05-22T21:32:59.066Z,26.80
2019-05-22T21:37:08.105Z,23.10
2019-05-22T21:41:19.506Z,13.47
2019-05-22T21:45:28.822Z,34.43
2019-05-22T21:49:38.917Z,12.60
2019-05-22T21:53:48.415Z,12.77
2019-05-22T21:57:57.387Z,15.53
2019-05-22T22:02:18.501Z,12.40
2019-05-22T22:06:28.026Z,15.53
2019-05-22T22:10:37.275Z,31.40
2019-05-22T22:14:47.891Z,13.00
2019-05-22T22:18:57.428Z,14.80
2019-05-22T22:23:06.427Z,16.10
2019-05-22T22:27:16.416Z,15.50
2019-05-22T22:31:28.086Z,13.33
2019-05-22T22:35:37.436Z,8.80
2019-05-22T22:39:52.209Z,10.47
2019-05-22T22:44:03.366Z,8.97
2019-05-22T22:48:16.397Z,9.87
2019-05-22T22:52:26.034Z,9.17
2019-05-22T22:56:35.150Z,9.30
2019-05-22T23:00:45.872Z,8.27
2019-05-22T23:04:55.622Z,10.00
2019-05-22T23:19:31.918Z,10.57
2019-05-22T23:23:40.754Z,8.13
2019-05-22T23:27:50.757Z,8.87
2019-05-22T23:32:00.603Z,9.20
2019-05-22T23:36:11.156Z,10.10
2019-05-22T23:40:25.513Z,9.87
2019-05-22T23:44:37.400Z,9.90
2019-05-22T23:48:47.202Z,9.90
2019-05-22T23:52:56.794Z,9.23
2019-05-22T23:57:06.137Z,10.07
